Time;durP1;ratioP1;P1;durP2;ratioP2;P2;SDS_P1;SDS_P2;PMS_P1;PMS_P2;Temp;Humidity;BMP_temperature;BMP_pressure;BME280_temperature;BME280_humidity;BME280_pressure;Samples;Min_cycle;Max_cycle;Signal;HPM_P1;HPM_P2
2021/06/15 00:00:17;;;;;;;8.80;7.30;;;;;;;18.26;75.58;100392.47;1717715;81;21138;-74
2021/06/15 00:02:44;;;;;;;11.63;7.87;;;;;;;18.23;75.76;100389.06;1698167;82;21046;-74
2021/06/15 00:05:11;;;;;;;9.73;7.50;;;;;;;18.20;75.96;100395.89;1713646;82;21070;-75
2021/06/15 00:07:39;;;;;;;8.40;7.20;;;;;;;18.16;76.13;100391.40;1731694;80;21878;-74
2021/06/15 00:10:17;;;;;;;8.67;7.30;;;;;;;18.13;76.34;100389.31;1742385;80;21568;-73
2021/06/15 00:12:46;;;;;;;8.97;7.03;;;;;;;18.08;76.60;100393.52;1733746;81;22989;-73
2021/06/15 00:15:13;;;;;;;9.23;7.63;;;;;;;18.07;76.76;100389.23;1732400;81;21042;-73
2021/06/15 00:17:42;;;;;;;10.93;7.50;;;;;;;18.04;76.86;100386.59;1736800;81;21006;-71
2021/06/15 00:20:11;;;;;;;9.33;7.70;;;;;;;18.00;77.17;100391.83;1730656;81;21026;-73
2021/06/15 00:22:38;;;;;;;9.17;7.90;;;;;;;17.95;77.36;100387.89;1736649;81;20987;-72
2021/06/15 00:25:06;;;;;;;11.03;8.33;;;;;;;17.91;77.56;100393.68;1733353;81;21391;-73
2021/06/15 00:27:34;;;;;;;11.53;8.30;;;;;;;17.88;77.81;100397.00;1733511;81;21045;-73
2021/06/15 00:30:01;;;;;;;10.27;7.47;;;;;;;17.84;78.07;100392.53;1732953;81;21494;-73
2021/06/15 00:32:28;;;;;;;10.73;8.47;;;;;;;17.80;78.28;100391.80;1737961;81;21050;-74
2021/06/15 00:34:55;;;;;;;8.53;7.50;;;;;;;17.78;78.52;100395.35;1728540;81;21482;-74
2021/06/15 00:37:22;;;;;;;10.13;8.13;;;;;;;17.75;78.78;100382.98;1741539;80;21150;-74
2021/06/15 00:39:49;;;;;;;8.83;7.63;;;;;;;17.72;78.98;100383.61;1732808;81;21572;-74
2021/06/15 00:42:16;;;;;;;10.87;7.93;;;;;;;17.71;79.10;100383.37;1711556;82;21492;-75
2021/06/15 00:44:43;;;;;;;9.80;8.80;;;;;;;17.71;79.27;100376.61;1732019;81;21617;-73
2021/06/15 00:47:09;;;;;;;9.17;7.90;;;;;;;17.69;79.45;100381.52;1739115;79;21063;-73
2021/06/15 00:49:37;;;;;;;10.87;7.90;;;;;;;17.68;79.57;100374.53;1751369;79;21240;-74
2021/06/15 00:52:05;;;;;;;9.73;8.33;;;;;;;17.66;79.79;100372.68;1769630;79;21154;-73
2021/06/15 00:54:32;;;;;;;10.50;8.43;;;;;;;17.62;79.99;100372.50;1770103;79;21049;-73
2021/06/15 00:56:59;;;;;;;9.00;7.87;;;;;;;17.61;80.17;100379.02;1769462;79;21053;-73
2021/06/15 00:59:26;;;;;;;12.53;8.60;;;;;;;17.59;80.21;100375.81;1776963;79;21044;-73
2021/06/15 01:01:54;;;;;;;9.63;8.60;;;;;;;17.58;80.56;100373.67;1744427;79;21155;-72
2021/06/15 01:04:22;;;;;;;11.40;8.90;;;;;;;17.57;80.66;100383.41;1781841;79;21709;-73
2021/06/15 01:07:23;;;;;;;12.90;8.53;;;;;;;17.57;80.88;100380.72;1747255;81;21089;-72
2021/06/15 01:09:59;;;;;;;9.93;8.33;;;;;;;17.57;81.05;100378.84;1734407;81;21082;-73
2021/06/15 01:13:07;;;;;;;9.90;8.53;;;;;;;17.56;81.30;100376.43;1775633;79;21001;-73
2021/06/15 01:16:12;;;;;;;9.77;8.40;;;;;;;17.53;81.45;100368.38;1765763;79;21762;-74
2021/06/15 01:18:44;;;;;;;11.47;8.83;;;;;;;17.52;81.62;100366.80;1707408;82;21998;-73
2021/06/15 01:21:12;;;;;;;10.70;9.05;;;;;;;17.54;81.74;100372.70;1783845;79;20998;-73
2021/06/15 01:23:53;;;;;;;10.37;9.27;;;;;;;17.53;81.88;100368.94;1776594;78;21086;-72
2021/06/15 01:27:00;;;;;;;12.90;9.63;;;;;;;17.50;82.05;100369.00;1791476;76;21029;-73
2021/06/15 01:29:31;;;;;;;11.30;10.10;;;;;;;17.48;82.08;100369.88;1789361;77;22254;-73
2021/06/15 01:32:06;;;;;;;11.75;9.93;;;;;;;17.44;82.19;100373.48;1779425;79;21096;-73
2021/06/15 01:34:41;;;;;;;12.60;9.60;;;;;;;17.42;82.22;100377.85;1779399;79;20999;-73
2021/06/15 01:37:19;;;;;;;10.43;9.33;;;;;;;17.39;82.30;100377.11;1783740;78;21089;-73
2021/06/15 01:39:55;;;;;;;10.23;9.23;;;;;;;17.40;82.41;100380.61;1790787;79;21070;-73
2021/06/15 01:42:39;;;;;;;11.77;9.47;;;;;;;17.38;82.54;100378.78;1774368;79;21115;-73
2021/06/15 01:45:13;;;;;;;10.73;9.63;;;;;;;17.30;82.79;100372.98;1769982;79;21025;-73
2021/06/15 01:47:45;;;;;;;9.80;8.77;;;;;;;17.30;82.79;100372.98;1782586;79;21049;-73
2021/06/15 01:50:13;;;;;;;11.73;8.93;;;;;;;17.30;82.69;100379.73;1775161;79;21053;-73
2021/06/15 01:52:40;;;;;;;10.17;9.03;;;;;;;17.30;82.71;100391.09;1767889;79;21047;-73
2021/06/15 01:55:08;;;;;;;9.60;8.60;;;;;;;17.30;82.74;100392.44;1713559;82;22212;-72
2021/06/15 01:57:49;;;;;;;9.80;8.50;;;;;;;17.28;82.80;100399.51;1751363;81;21097;-73
2021/06/15 02:00:19;;;;;;;10.30;9.30;;;;;;;17.24;82.89;100398.53;1776546;79;21069;-72
2021/06/15 02:02:50;;;;;;;10.93;9.83;;;;;;;17.25;82.91;100396.63;1784761;79;21112;-73
2021/06/15 02:05:23;;;;;;;10.40;9.23;;;;;;;17.28;82.99;100398.16;1741687;79;21033;-73
2021/06/15 02:07:50;;;;;;;10.08;9.08;;;;;;;17.29;82.96;100398.40;1725073;81;21099;-72
2021/06/15 02:10:17;;;;;;;13.30;9.33;;;;;;;17.32;83.07;100398.34;1730587;82;20987;-72
2021/06/15 02:12:48;;;;;;;11.93;9.60;;;;;;;17.34;83.02;100392.89;1732190;81;21086;-72
2021/06/15 02:15:19;;;;;;;10.93;9.40;;;;;;;17.37;83.00;100392.81;1772909;79;21544;-72
2021/06/15 02:17:56;;;;;;;11.23;9.03;;;;;;;17.41;82.91;100397.07;1757487;79;21653;-73
2021/06/15 02:20:27;;;;;;;9.80;8.80;;;;;;;17.44;82.75;100397.25;1771432;79;21012;-73
2021/06/15 02:22:56;;;;;;;9.93;8.93;;;;;;;17.48;82.80;100400.93;1772149;79;21118;-73
2021/06/15 02:25:30;;;;;;;9.73;8.83;;;;;;;17.52;82.39;100398.41;1782175;79;21069;-73
2021/06/15 02:27:57;;;;;;;10.37;8.70;;;;;;;17.56;82.21;100397.48;1704834;82;21093;-73
2021/06/15 02:30:24;;;;;;;9.40;8.00;;;;;;;17.62;82.00;100399.51;1706528;82;21046;-73
2021/06/15 02:32:57;;;;;;;10.10;9.10;;;;;;;17.67;81.84;100402.63;1771561;79;21998;-72
2021/06/15 02:35:25;;;;;;;10.03;8.78;;;;;;;17.71;81.64;100403.63;1711486;82;21601;-73
2021/06/15 02:38:03;;;;;;;9.83;8.77;;;;;;;17.75;81.48;100405.95;1756364;80;21531;-73
2021/06/15 02:40:31;;;;;;;9.70;8.70;;;;;;;17.78;81.34;100406.72;1789490;79;21033;-73
2021/06/15 02:42:58;;;;;;;8.90;8.00;;;;;;;17.82;81.18;100402.28;1747138;79;21508;-73
2021/06/15 02:45:33;;;;;;;9.77;8.53;;;;;;;17.88;80.97;100405.66;1752627;79;21126;-73
2021/06/15 02:48:05;;;;;;;9.60;8.40;;;;;;;17.93;80.73;100404.98;1781145;79;21035;-73
2021/06/15 02:50:35;;;;;;;9.13;8.13;;;;;;;17.99;80.45;100411.03;1773131;79;21077;-73
2021/06/15 02:53:07;;;;;;;10.03;8.20;;;;;;;18.04;80.10;100407.66;1778312;79;21029;-73
2021/06/15 02:55:39;;;;;;;8.60;7.70;;;;;;;18.09;79.78;100399.16;1763473;79;21102;-73
2021/06/15 02:58:06;;;;;;;8.73;7.85;;;;;;;18.16;79.46;100407.62;1777287;79;21107;-73
2021/06/15 03:00:34;;;;;;;9.77;8.50;;;;;;;18.24;79.21;100410.37;1781084;79;21521;-72
2021/06/15 03:03:03;;;;;;;9.27;8.37;;;;;;;18.31;78.99;100409.13;1777486;79;21559;-73
2021/06/15 03:05:30;;;;;;;9.13;8.13;;;;;;;18.36;78.66;100401.69;1757213;79;21113;-73
2021/06/15 03:07:57;;;;;;;9.40;8.50;;;;;;;18.43;78.35;100406.08;1786375;79;21521;-73
2021/06/15 03:10:25;;;;;;;9.00;8.10;;;;;;;18.49;78.11;100406.17;1773896;79;21780;-72
2021/06/15 03:13:10;;;;;;;8.80;7.90;;;;;;;18.58;77.72;100404.83;1771452;79;21898;-73
2021/06/15 03:15:48;;;;;;;8.63;7.70;;;;;;;18.67;77.50;100403.52;1744244;79;21093;-72
2021/06/15 03:18:33;;;;;;;9.00;8.20;;;;;;;18.79;77.23;100405.09;1779870;79;21556;-72
2021/06/15 03:21:05;;;;;;;9.60;8.70;;;;;;;18.85;76.91;100403.80;1740875;81;21073;-73
2021/06/15 03:24:01;;;;;;;9.03;8.08;;;;;;;18.89;76.71;100403.44;1739333;80;21155;-73
2021/06/15 03:26:42;;;;;;;10.30;8.40;;;;;;;18.93;76.57;100401.68;1749973;80;21046;-73
2021/06/15 03:29:12;;;;;;;8.83;7.90;;;;;;;18.97;76.53;100401.84;1754634;80;21081;-72
2021/06/15 03:31:41;;;;;;;9.13;8.23;;;;;;;19.02;76.47;100407.11;1676244;83;26868;-71
2021/06/15 03:34:10;;;;;;;10.43;8.23;;;;;;;19.11;76.07;100401.69;1706054;81;21124;-72
2021/06/15 03:36:38;;;;;;;9.70;7.87;;;;;;;19.19;75.73;100401.70;1739545;80;21406;-72
2021/06/15 03:39:05;;;;;;;8.70;7.90;;;;;;;19.29;75.44;100401.94;1739316;81;21077;-73
2021/06/15 03:41:33;;;;;;;8.60;7.80;;;;;;;19.35;75.17;100402.02;1709329;81;21107;-73
2021/06/15 03:44:02;;;;;;;9.57;7.93;;;;;;;19.45;74.74;100405.76;1711880;82;21078;-73
2021/06/15 03:46:31;;;;;;;9.33;8.33;;;;;;;19.54;74.46;100404.94;1743965;81;21493;-73
2021/06/15 03:48:58;;;;;;;9.53;8.30;;;;;;;19.62;73.97;100395.45;1733880;80;21942;-73
2021/06/15 03:51:29;;;;;;;8.47;7.67;;;;;;;19.71;73.73;100398.72;1703210;82;21062;-72
2021/06/15 03:54:05;;;;;;;8.85;7.95;;;;;;;19.77;73.36;100404.22;1707540;82;21132;-73
2021/06/15 03:56:25;;;;;;;10.97;8.30;;;;;;;19.84;73.18;100398.55;1719674;81;21103;-73
2021/06/15 03:58:52;;;;;;;9.30;8.40;;;;;;;19.92;72.84;100405.06;1751682;80;21100;-73
2021/06/15 04:01:20;;;;;;;9.40;8.50;;;;;;;20.01;72.57;100401.77;1762799;81;21127;-73
2021/06/15 04:03:47;;;;;;;8.87;7.97;;;;;;;20.09;72.49;100398.79;1741462;80;21558;-73
2021/06/15 04:06:15;;;;;;;9.40;8.40;;;;;;;20.18;72.34;100406.90;1703486;82;21085;-73
2021/06/15 04:08:42;;;;;;;9.53;8.60;;;;;;;20.26;72.32;100400.06;1716706;81;21010;-73
2021/06/15 04:11:08;;;;;;;9.83;8.83;;;;;;;20.35;72.71;100397.33;1737785;81;21165;-73
2021/06/15 04:13:35;;;;;;;9.70;8.80;;;;;;;20.43;72.84;100399.19;1747839;80;21097;-72
2021/06/15 04:16:04;;;;;;;9.60;8.63;;;;;;;20.49;72.91;100406.02;1732906;81;21719;-72
2021/06/15 04:18:32;;;;;;;8.70;7.90;;;;;;;20.56;73.01;100407.69;1747431;80;21057;-74
2021/06/15 04:21:03;;;;;;;9.40;8.50;;;;;;;20.60;73.02;100407.28;1758116;79;21072;-73
2021/06/15 04:23:43;;;;;;;9.95;9.05;;;;;;;20.64;73.02;100401.20;1788958;79;21048;-73
2021/06/15 04:26:09;;;;;;;10.37;8.63;;;;;;;20.68;72.93;100405.64;1773745;79;22611;-73
2021/06/15 04:28:38;;;;;;;9.53;8.63;;;;;;;20.74;72.85;100412.47;1771586;79;21046;-73
2021/06/15 04:31:05;;;;;;;8.60;7.80;;;;;;;20.82;72.88;100405.39;1724386;81;21122;-73
2021/06/15 04:33:32;;;;;;;11.50;9.20;;;;;;;20.92;72.62;100405.00;1714934;82;21108;-74
2021/06/15 04:36:02;;;;;;;9.53;8.53;;;;;;;20.97;72.14;100405.38;1702137;82;21719;-73
2021/06/15 04:38:36;;;;;;;9.43;8.43;;;;;;;20.94;71.93;100404.11;1746446;81;21148;-72
2021/06/15 04:41:08;;;;;;;8.53;7.80;;;;;;;20.96;71.61;100399.70;1785779;79;21518;-73
2021/06/15 04:43:51;;;;;;;9.60;8.60;;;;;;;20.97;71.44;100401.31;1782741;79;21476;-71
2021/06/15 04:46:40;;;;;;;9.27;8.33;;;;;;;20.93;71.15;100402.53;1776395;79;21057;-72
2021/06/15 04:49:40;;;;;;;6.73;6.03;;;;;;;20.95;71.37;100411.69;1761136;79;21092;-73
2021/06/15 04:52:05;;;;;;;6.60;6.00;;;;;;;21.06;70.58;100414.27;1703894;82;21151;-73
2021/06/15 04:54:35;;;;;;;5.83;5.07;;;;;;;21.23;69.11;100399.75;1748752;81;21018;-73
2021/06/15 04:57:04;;;;;;;6.53;4.70;;;;;;;21.40;67.47;100402.34;1734983;81;21015;-72
2021/06/15 04:59:30;;;;;;;5.13;4.63;;;;;;;21.59;66.29;100403.78;1743294;80;21045;-72
2021/06/15 05:01:58;;;;;;;5.63;4.60;;;;;;;21.76;65.05;100400.88;1746437;80;21062;-72
2021/06/15 05:04:26;;;;;;;5.70;4.67;;;;;;;21.94;64.64;100401.47;1724090;82;21322;-73
2021/06/15 05:06:53;;;;;;;6.53;4.80;;;;;;;22.10;63.86;100401.05;1773561;79;21120;-73
2021/06/15 05:09:25;;;;;;;5.30;4.73;;;;;;;22.24;63.23;100407.00;1712864;82;21581;-73
2021/06/15 05:11:54;;;;;;;5.33;4.67;;;;;;;22.35;62.91;100405.98;1745498;80;21090;-73
2021/06/15 05:14:25;;;;;;;6.87;5.20;;;;;;;22.49;62.68;100402.91;1725669;82;21542;-73
2021/06/15 05:16:55;;;;;;;6.20;4.60;;;;;;;22.58;61.70;100406.31;1734645;81;21503;-74
2021/06/15 05:19:24;;;;;;;6.30;4.67;;;;;;;22.63;61.34;100403.92;1739053;81;21085;-73
2021/06/15 05:22:17;;;;;;;4.80;4.30;;;;;;;22.70;61.25;100406.31;1747501;81;21106;-73
2021/06/15 05:24:57;;;;;;;5.60;4.23;;;;;;;22.79;60.41;100408.11;1764363;79;21042;-71
2021/06/15 05:27:27;;;;;;;4.87;4.37;;;;;;;22.83;60.15;100410.36;1779438;79;21053;-73
2021/06/15 05:29:55;;;;;;;5.40;3.92;;;;;;;22.89;59.75;100408.99;1771383;79;21140;-73
2021/06/15 05:32:21;;;;;;;4.97;4.40;;;;;;;22.92;59.47;100419.20;1729251;81;21644;-73
2021/06/15 05:34:48;;;;;;;6.53;4.23;;;;;;;22.96;59.31;100413.89;1741129;80;21049;-73
2021/06/15 05:37:15;;;;;;;6.30;4.27;;;;;;;22.97;59.22;100405.93;1742796;81;21090;-74
2021/06/15 05:39:42;;;;;;;4.67;4.17;;;;;;;23.01;58.84;100402.19;1741572;81;21018;-73
2021/06/15 05:42:11;;;;;;;4.20;3.80;;;;;;;23.04;58.77;100403.44;1745445;81;21094;-73
2021/06/15 05:44:39;;;;;;;5.53;4.17;;;;;;;23.06;58.77;100400.58;1746871;81;21614;-72
2021/06/15 05:47:06;;;;;;;5.83;4.40;;;;;;;23.14;59.07;100403.74;1735942;81;21708;-73
2021/06/15 05:49:32;;;;;;;4.47;3.77;;;;;;;23.24;59.34;100402.47;1742019;81;21093;-72
2021/06/15 05:52:06;;;;;;;4.83;3.83;;;;;;;23.36;59.22;100398.88;1736414;81;21532;-73
2021/06/15 05:54:33;;;;;;;5.60;4.00;;;;;;;23.50;58.88;100399.30;1739262;81;21114;-72
2021/06/15 05:57:00;;;;;;;4.30;3.70;;;;;;;23.59;58.21;100397.75;1740647;81;21271;-72
2021/06/15 05:59:28;;;;;;;4.93;3.80;;;;;;;23.65;58.28;100401.24;1735220;81;21105;-73
2021/06/15 06:01:54;;;;;;;5.73;3.83;;;;;;;23.77;58.49;100403.73;1704688;82;21065;-73
2021/06/15 06:04:26;;;;;;;4.90;3.60;;;;;;;23.89;58.01;100403.66;1735718;81;21061;-73
2021/06/15 06:09:39;;;;;;;4.20;3.23;;;;;;;24.04;56.87;100404.23;1743655;81;21486;-73
2021/06/15 06:12:08;;;;;;;5.67;3.73;;;;;;;24.14;57.33;100399.39;1780348;79;21097;-74
2021/06/15 06:14:36;;;;;;;5.80;3.83;;;;;;;24.24;56.96;100406.47;1803827;79;21049;-73
2021/06/15 06:17:04;;;;;;;5.67;4.30;;;;;;;24.33;56.82;100401.62;1771860;79;21066;-73
2021/06/15 06:19:30;;;;;;;5.83;3.80;;;;;;;24.45;56.79;100399.96;1775874;79;21640;-73
2021/06/15 06:21:57;;;;;;;5.13;3.60;;;;;;;24.57;56.17;100400.64;1778498;79;21081;-72
2021/06/15 06:24:23;;;;;;;5.63;3.77;;;;;;;24.67;55.88;100397.94;1776856;79;21070;-73
2021/06/15 06:26:51;;;;;;;5.33;3.90;;;;;;;24.76;54.70;100399.13;1780469;79;21038;-73
2021/06/15 06:29:19;;;;;;;4.30;3.60;;;;;;;24.82;54.85;100397.70;1707417;82;22168;-76
2021/06/15 06:31:47;;;;;;;9.80;3.70;;;;;;;24.90;54.63;100401.36;1739716;80;21777;-72
2021/06/15 06:34:14;;;;;;;6.07;3.53;;;;;;;24.98;54.87;100395.70;1716035;82;21023;-73
2021/06/15 06:36:41;;;;;;;4.70;3.63;;;;;;;25.09;54.91;100395.92;1741439;80;21050;-73
2021/06/15 06:39:09;;;;;;;3.77;3.00;;;;;;;25.19;53.76;100399.47;1709443;82;21557;-72
2021/06/15 06:41:37;;;;;;;4.23;3.07;;;;;;;25.24;51.68;100399.78;1775524;79;21124;-73
2021/06/15 06:44:04;;;;;;;4.00;2.83;;;;;;;25.23;50.54;100394.08;1733980;81;21113;-72
2021/06/15 06:46:33;;;;;;;4.00;2.90;;;;;;;25.21;50.68;100390.93;1794007;79;21152;-72
2021/06/15 06:49:00;;;;;;;5.60;2.90;;;;;;;25.19;50.69;100385.80;1778517;79;21037;-73
2021/06/15 06:51:27;;;;;;;4.10;3.70;;;;;;;25.24;51.64;100391.58;1771692;79;21020;-73
2021/06/15 06:53:53;;;;;;;3.73;3.20;;;;;;;25.34;51.91;100388.27;1743151;81;21485;-72
2021/06/15 06:56:20;;;;;;;4.37;2.97;;;;;;;25.44;50.90;100386.89;1748217;80;21701;-73
2021/06/15 06:58:48;;;;;;;4.43;3.27;;;;;;;25.49;50.53;100379.16;1742917;81;21631;-73
2021/06/15 07:01:14;;;;;;;5.00;2.60;;;;;;;25.57;50.30;100375.19;1739203;81;21109;-72
2021/06/15 07:03:41;;;;;;;4.07;2.80;;;;;;;25.61;49.13;100364.54;1745048;81;21097;-74
2021/06/15 07:06:08;;;;;;;5.43;3.17;;;;;;;25.60;49.13;100370.36;1741987;81;21624;-73
2021/06/15 07:08:35;;;;;;;3.73;2.90;;;;;;;25.57;49.92;100368.34;1736052;81;21422;-73
2021/06/15 07:11:02;;;;;;;6.63;3.77;;;;;;;25.61;50.71;100369.22;1715786;81;21129;-74
2021/06/15 07:13:29;;;;;;;4.40;3.20;;;;;;;25.66;50.87;100365.59;1733511;81;21403;-72
2021/06/15 07:15:55;;;;;;;5.87;3.70;;;;;;;25.73;51.88;100369.84;1708114;82;21098;-74
2021/06/15 07:18:22;;;;;;;6.40;3.70;;;;;;;25.83;50.20;100378.06;1717108;82;21081;-73
2021/06/15 07:20:49;;;;;;;4.20;3.80;;;;;;;25.85;50.63;100370.26;1741547;80;21032;-74
2021/06/15 07:23:16;;;;;;;5.60;3.57;;;;;;;25.86;50.52;100375.94;1722310;81;21416;-73
2021/06/15 07:25:42;;;;;;;5.77;4.43;;;;;;;25.88;51.00;100371.48;1737368;81;21072;-74
2021/06/15 07:28:09;;;;;;;6.50;4.20;;;;;;;25.93;51.37;100373.92;1702704;82;21070;-73
2021/06/15 07:30:36;;;;;;;4.00;3.60;;;;;;;25.96;51.80;100373.98;1739213;81;21643;-73
2021/06/15 07:33:03;;;;;;;5.77;3.80;;;;;;;26.02;50.09;100370.92;1745506;81;21485;-73
2021/06/15 07:35:29;;;;;;;4.57;3.80;;;;;;;26.03;50.48;100365.65;1747154;80;21021;-72
2021/06/15 07:37:56;;;;;;;4.37;3.57;;;;;;;26.06;50.42;100369.02;1739194;81;21065;-74
2021/06/15 07:40:23;;;;;;;4.97;3.93;;;;;;;26.15;50.95;100369.56;1780926;79;20953;-74
2021/06/15 07:42:55;;;;;;;4.97;3.87;;;;;;;26.19;49.64;100360.27;1721818;81;21102;-73
2021/06/15 07:45:23;;;;;;;5.17;4.40;;;;;;;26.27;49.48;100363.90;1741036;80;21130;-74
2021/06/15 07:47:50;;;;;;;4.83;4.00;;;;;;;26.36;49.59;100359.54;1736607;80;21068;-74
2021/06/15 07:50:16;;;;;;;6.03;4.33;;;;;;;26.41;48.70;100357.84;1744939;80;21085;-73
2021/06/15 07:52:43;;;;;;;5.83;4.00;;;;;;;26.43;50.47;100352.80;1754206;80;21551;-73
2021/06/15 07:55:12;;;;;;;15.57;5.50;;;;;;;26.51;49.18;100356.45;1743798;80;21105;-74
2021/06/15 07:57:38;;;;;;;4.63;3.80;;;;;;;26.53;48.57;100359.62;1728690;80;21134;-75
2021/06/15 08:00:07;;;;;;;7.00;4.30;;;;;;;26.51;48.55;100356.45;1741797;80;21043;-73
2021/06/15 08:02:36;;;;;;;4.97;3.83;;;;;;;26.50;49.79;100348.81;1740283;80;21046;-73
2021/06/15 08:05:04;;;;;;;10.27;3.80;;;;;;;26.63;49.29;100348.02;1743098;80;21097;-73
2021/06/15 08:07:31;;;;;;;4.07;3.30;;;;;;;26.75;49.21;100351.91;1733316;80;21097;-72
2021/06/15 08:09:58;;;;;;;5.03;3.50;;;;;;;26.82;47.56;100341.03;1741205;80;21129;-74
2021/06/15 08:12:24;;;;;;;4.73;3.77;;;;;;;26.86;46.76;100344.59;1739107;80;21562;-72
2021/06/15 08:14:51;;;;;;;4.60;3.30;;;;;;;26.89;47.68;100345.81;1777978;79;21045;-73
2021/06/15 08:17:17;;;;;;;4.23;3.13;;;;;;;26.86;46.60;100339.70;1798229;79;21112;-73
2021/06/15 08:19:44;;;;;;;4.37;3.53;;;;;;;26.76;47.57;100337.03;1773666;79;21455;-73
2021/06/15 08:22:10;;;;;;;3.83;2.90;;;;;;;26.75;48.07;100327.24;1774644;79;21102;-73
2021/06/15 08:24:37;;;;;;;4.37;3.40;;;;;;;26.82;48.32;100331.44;1773230;79;21133;-74
2021/06/15 08:27:04;;;;;;;6.17;3.10;;;;;;;26.91;47.13;100331.13;1776398;79;21011;-72
2021/06/15 08:29:31;;;;;;;4.70;3.53;;;;;;;26.86;46.53;100326.78;1703284;83;21100;-73
2021/06/15 08:31:58;;;;;;;4.00;3.10;;;;;;;26.81;47.47;100326.31;1732295;81;21092;-73
2021/06/15 08:34:26;;;;;;;4.93;3.10;;;;;;;26.82;48.01;100339.66;1744224;81;21814;-73
2021/06/15 08:36:53;;;;;;;4.23;3.30;;;;;;;26.86;48.29;100335.00;1781923;79;21121;-73
2021/06/15 08:39:20;;;;;;;7.40;3.60;;;;;;;26.88;47.92;100334.62;1771112;79;22672;-73
2021/06/15 08:41:47;;;;;;;4.23;3.37;;;;;;;26.95;48.28;100332.55;1771350;79;21054;-72
2021/06/15 08:44:13;;;;;;;4.20;3.43;;;;;;;27.05;48.58;100325.05;1722376;81;21059;-72
2021/06/15 08:46:40;;;;;;;5.67;3.60;;;;;;;27.13;48.29;100332.20;1736438;82;21141;-73
2021/06/15 08:49:07;;;;;;;3.57;2.90;;;;;;;27.26;48.54;100332.16;1745426;80;21297;-72
2021/06/15 08:51:35;;;;;;;4.90;3.20;;;;;;;27.46;48.96;100328.63;1732971;80;21478;-73
2021/06/15 08:54:05;;;;;;;4.83;3.10;;;;;;;27.56;47.43;100325.20;1777059;79;21093;-74
2021/06/15 08:56:33;;;;;;;4.13;3.23;;;;;;;27.58;47.78;100324.25;1781561;79;20987;-72
2021/06/15 08:59:29;;;;;;;4.00;3.03;;;;;;;27.65;48.32;100326.27;1736530;81;21918;-73
2021/06/15 09:02:05;;;;;;;4.37;2.90;;;;;;;27.73;47.43;100323.78;1743252;80;21068;-72
2021/06/15 09:04:33;;;;;;;4.30;3.00;;;;;;;27.76;46.10;100321.68;1736304;81;21026;-72
2021/06/15 09:07:00;;;;;;;4.70;2.80;;;;;;;27.89;46.38;100314.53;1745453;81;22229;-73
2021/06/15 09:09:49;;;;;;;6.13;3.10;;;;;;;28.08;45.98;100312.13;1738264;81;21363;-73
2021/06/15 09:12:20;;;;;;;4.63;3.13;;;;;;;28.14;46.51;100304.52;1732249;80;21703;-73
2021/06/15 09:14:55;;;;;;;3.97;2.80;;;;;;;28.14;45.82;100307.27;1744842;81;21016;-72
2021/06/15 09:17:30;;;;;;;4.97;3.30;;;;;;;28.13;45.57;100308.42;1753553;80;21070;-74
2021/06/15 09:20:12;;;;;;;4.77;3.30;;;;;;;28.05;45.82;100299.95;1720805;81;21086;-73
2021/06/15 09:22:39;;;;;;;;;;;;;;;28.12;45.92;100299.98;1739794;81;21061;-73
2021/06/15 09:25:09;;;;;;;7.17;3.23;;;;;;;28.25;45.46;100301.25;1698226;82;21178;-73
2021/06/15 09:27:38;;;;;;;3.75;2.87;;;;;;;28.35;45.01;100298.36;1739653;80;21689;-72
2021/06/15 09:30:08;;;;;;;3.47;2.93;;;;;;;28.42;44.41;100299.80;1752121;80;21146;-73
2021/06/15 09:32:39;;;;;;;4.30;3.20;;;;;;;28.45;44.65;100294.13;1735263;81;21124;-72
2021/06/15 09:35:15;;;;;;;3.90;2.83;;;;;;;28.50;44.66;100291.02;1747005;80;21094;-74
2021/06/15 09:37:48;;;;;;;4.47;3.00;;;;;;;28.56;44.83;100284.55;1735883;81;21161;-73
2021/06/15 09:40:20;;;;;;;4.13;3.07;;;;;;;28.61;44.64;100288.32;1741006;81;21493;-73
2021/06/15 09:43:08;;;;;;;4.07;3.30;;;;;;;28.60;44.42;100295.00;1735689;81;21554;-73
2021/06/15 09:45:45;;;;;;;4.27;2.87;;;;;;;28.62;44.57;100285.77;1745558;80;21537;-74
2021/06/15 09:48:26;;;;;;;4.73;2.43;;;;;;;28.75;43.55;100282.28;1741873;81;21538;-76
2021/06/15 09:51:00;;;;;;;4.40;3.10;;;;;;;28.87;43.28;100276.25;1736546;80;21324;-71
2021/06/15 09:53:35;;;;;;;4.07;2.60;;;;;;;28.93;43.37;100277.45;1744165;80;21037;-73
2021/06/15 09:56:08;;;;;;;3.27;2.57;;;;;;;28.99;42.89;100273.92;1730485;81;21467;-72
2021/06/15 09:58:53;;;;;;;3.73;2.80;;;;;;;29.01;41.73;100272.77;1747626;80;21613;-74
2021/06/15 10:01:33;;;;;;;4.17;2.70;;;;;;;28.92;40.75;100273.10;1773443;79;21227;-76
2021/06/15 10:04:16;;;;;;;4.67;2.90;;;;;;;28.85;41.52;100270.34;1771919;79;21312;-78
2021/06/15 10:06:54;;;;;;;4.03;2.63;;;;;;;28.79;41.14;100268.55;1771582;79;20999;-73
2021/06/15 10:09:29;;;;;;;4.43;2.70;;;;;;;28.77;41.71;100272.88;1786514;79;21552;-73
2021/06/15 10:11:58;;;;;;;3.53;2.83;;;;;;;28.73;41.94;100272.27;1770987;79;21088;-73
2021/06/15 10:14:26;;;;;;;3.87;2.70;;;;;;;28.55;42.09;100270.63;1733861;81;22178;-73
2021/06/15 10:16:54;;;;;;;4.37;2.77;;;;;;;28.56;43.74;100270.81;1740560;81;21684;-74
2021/06/15 10:19:22;;;;;;;3.27;2.50;;;;;;;28.81;44.34;100273.67;1735092;81;21508;-73
2021/06/15 10:21:49;;;;;;;3.10;2.40;;;;;;;28.97;42.22;100267.23;1737519;80;21712;-72
2021/06/15 10:24:21;;;;;;;3.53;2.40;;;;;;;28.98;41.53;100268.20;1706610;82;21073;-72
2021/06/15 10:26:45;;;;;;;4.97;2.73;;;;;;;28.95;41.01;100264.86;1700024;82;20994;-71
2021/06/15 10:29:12;;;;;;;4.03;2.60;;;;;;;28.97;41.35;100261.14;1743643;80;21138;-72
2021/06/15 10:31:41;;;;;;;4.33;2.23;;;;;;;29.08;39.43;100262.56;1755994;81;21085;-72
2021/06/15 10:34:08;;;;;;;4.30;2.70;;;;;;;29.13;39.10;100253.16;1777260;79;21060;-73
2021/06/15 10:36:39;;;;;;;3.33;2.43;;;;;;;29.11;39.82;100252.75;1786533;79;21084;-73
2021/06/15 10:39:09;;;;;;;3.70;2.80;;;;;;;29.17;40.45;100246.48;1756499;79;21050;-73
2021/06/15 10:41:36;;;;;;;3.42;2.42;;;;;;;29.22;40.96;100242.57;1706722;82;21106;-73
2021/06/15 10:44:03;;;;;;;4.37;2.70;;;;;;;29.33;42.06;100245.33;1706638;82;21466;-73
2021/06/15 10:46:37;;;;;;;5.00;2.73;;;;;;;29.33;41.21;100249.45;1707804;82;21097;-73
2021/06/15 10:49:13;;;;;;;4.27;2.67;;;;;;;29.30;41.30;100248.86;1771322;79;21048;-71
2021/06/15 10:51:57;;;;;;;3.73;2.70;;;;;;;29.24;41.02;100242.95;1763789;79;21026;-72
2021/06/15 10:54:35;;;;;;;3.27;2.53;;;;;;;29.09;40.76;100244.91;1773487;79;21790;-72
2021/06/15 10:57:28;;;;;;;3.90;2.70;;;;;;;28.90;40.69;100257.01;1770107;79;20994;-73
2021/06/15 11:00:07;;;;;;;4.23;2.77;;;;;;;28.62;41.45;100245.33;1708137;82;21213;-72
2021/06/15 11:02:35;;;;;;;3.73;2.83;;;;;;;28.42;43.86;100245.45;1733713;81;21069;-72
2021/06/15 11:05:41;;;;;;;4.37;2.93;;;;;;;28.26;44.58;100244.36;1732903;81;21101;-73
2021/06/15 11:08:23;;;;;;;5.27;3.17;;;;;;;28.13;46.18;100250.76;1762737;79;21145;-72
2021/06/15 11:10:52;;;;;;;;;;;;;;;27.99;46.61;100251.47;1714727;82;21054;-74
2021/06/15 11:13:21;;;;;;;4.50;2.77;;;;;;;27.92;46.71;100250.64;1726688;82;20201;-74
2021/06/15 11:16:00;;;;;;;4.53;2.83;;;;;;;27.77;45.79;100243.69;1703970;82;21082;-73
2021/06/15 11:18:27;;;;;;;4.67;2.90;;;;;;;27.63;45.32;100232.56;1710325;82;21121;-74
2021/06/15 11:20:54;;;;;;;3.87;2.83;;;;;;;27.50;45.38;100232.66;1754862;81;21187;-74
2021/06/15 11:23:27;;;;;;;4.47;2.70;;;;;;;27.44;46.51;100230.84;1740514;80;21148;-73
2021/06/15 11:26:07;;;;;;;3.53;2.60;;;;;;;27.49;46.99;100223.64;1734817;81;21094;-72
2021/06/15 11:28:47;;;;;;;3.30;2.53;;;;;;;27.57;46.59;100220.36;1743372;81;21095;-72
2021/06/15 11:31:26;;;;;;;4.53;2.93;;;;;;;27.67;46.21;100217.49;1781993;79;21081;-73
2021/06/15 11:34:04;;;;;;;3.93;2.80;;;;;;;27.86;46.38;100206.87;1773898;79;21073;-73
2021/06/15 11:36:50;;;;;;;4.20;2.40;;;;;;;28.12;45.19;100200.36;1775417;79;21080;-73
2021/06/15 11:39:32;;;;;;;3.63;2.53;;;;;;;28.43;44.28;100190.70;1773224;79;21097;-73
2021/06/15 11:42:21;;;;;;;3.90;2.73;;;;;;;28.63;43.57;100190.59;1773088;79;21045;-73
2021/06/15 11:45:22;;;;;;;2.50;2.07;;;;;;;28.81;42.58;100189.23;1780412;79;21006;-73